Eems Carrier — PFHD — position and weather

sailwx.info

Track history (hours):
 
Tides and Currents Weather Stations Pressure Air Temp Water Temp Dewpoint Dewpoint Depression Visibility Wind Speed Wind Dir Waves Ship Positions

Eems Carrier

Last reported at 2017-Sep-22 01:59 UTC. Time now 2017-Sep-23 14:48 UTC.
Position N 54°06' E 007°54'.

Length 84 m; draft 2.7 m.

Type: Cargo ship. MMSI: 245257000.

Date/timePositionNaut miles runAvg speedWind from/ knotsBaromVisibWave heightAir tempDewpointWater temp
2017-Sep-22 01:59N 54°06' E 007°54'511.0
2017-Sep-22 01:29N 54°03' E 008°02'510.5
2017-Sep-22 01:00N 54°01' E 008°10'510.7
2017-Sep-22 00:30N 54°00' E 008°19'510.3
2017-Sep-22 00:00N 53°59' E 008°28'5 9.2
2017-Sep-21 23:31N 53°58' E 008°35'4 8.0
2017-Sep-21 23:01N 53°55' E 008°41'3 6.6
2017-Sep-21 22:29N 53°53' E 008°44'0 0.1
2017-Sep-21 21:59N 53°53' E 008°44'0 0.1
2017-Sep-21 21:23N 53°53' E 008°44'0 0.2
2017-Sep-21 20:59N 53°53' E 008°44'0 0.0
2017-Sep-21 20:29N 53°53' E 008°44'0 0.0
2017-Sep-21 19:59N 53°53' E 008°44'0 0.0
2017-Sep-21 19:29N 53°53' E 008°44'0 0.1
2017-Sep-21 19:00N 53°53' E 008°44'2 3.7
2017-Sep-21 18:30N 53°54' E 008°41'3 6.6
2017-Sep-21 18:00N 53°57' E 008°38'4 7.6
2017-Sep-21 17:30N 53°58' E 008°32'4 7.9
2017-Sep-21 17:00N 53°59' E 008°26'4 8.2
2017-Sep-21 16:30N 53°60' E 008°19'4 5.3
2017-Sep-21 15:46N 54°03' E 008°16'  
2017-Sep-18 04:58N 54°07' E 008°16'5 9.9
2017-Sep-18 04:28N 54°03' E 008°13'4 7.0
2017-Sep-18 03:55N 53°60' E 008°09'2 5.9
2017-Sep-18 03:30N 53°59' E 008°05'3 5.6
2017-Sep-18 02:54N 53°58' E 007°59'2 5.4
2017-Sep-18 02:30N 53°58' E 007°55'100 7.5
2017-Sep-17 13:03N 53°31' E 005°12'1 9.4
2017-Sep-17 12:58N 53°30' E 005°11'4 9.3
2017-Sep-17 12:30N 53°29' E 005°04'4 8.9
2017-Sep-17 12:00N 53°27' E 004°58'5 8.7
2017-Sep-17 11:26N 53°25' E 004°50'142 8.8
2017-Sep-16 19:11N 51°36' E 002°20'4 8.7
2017-Sep-16 18:45N 51°33' E 002°16'2 8.4
2017-Sep-16 18:30N 51°31' E 002°15'4 8.2
2017-Sep-16 18:00N 51°27' E 002°13'4 8.0
2017-Sep-16 17:30N 51°23' E 002°11'3 6.9
2017-Sep-16 17:00N 51°20' E 002°07'4 7.3
2017-Sep-16 16:30N 51°17' E 002°06'4 7.1
2017-Sep-16 16:00N 51°14' E 002°02'4 7.8
2017-Sep-16 15:30N 51°12' E 001°57'4 7.9
2017-Sep-16 15:00N 51°10' E 001°52'4 8.0
2017-Sep-16 14:30N 51°07' E 001°47'4 8.1
2017-Sep-16 14:00N 51°04' E 001°42'4 8.3
2017-Sep-16 13:30N 51°01' E 001°38'4 8.9
2017-Sep-16 13:00N 50°59' E 001°32'5 9.6
2017-Sep-16 12:28N 50°56' E 001°26'122 9.4
2017-Sep-15 23:28N 50°04' W 001°29'3 7.4
2017-Sep-15 23:00N 50°03' W 001°34'4 7.1
2017-Sep-15 22:30N 50°02' W 001°39'3 6.9
2017-Sep-15 22:00N 50°01' W 001°44'3 6.8
2017-Sep-15 21:30N 50°00' W 001°49'3 6.8
2017-Sep-15 21:00N 49°59' W 001°54'136 9.0
2017-Sep-15 05:50N 48°49' W 004°53'2 7.7
2017-Sep-15 05:30N 48°47' W 004°56'4 7.6
2017-Sep-15 05:00N 48°45' W 005°00'4 7.5
2017-Sep-15 04:30N 48°42' W 005°05'4 7.4
2017-Sep-15 04:00N 48°40' W 005°09'4 7.4
2017-Sep-15 03:30N 48°38' W 005°14'4 7.5
2017-Sep-15 03:00N 48°35' W 005°17'7 7.7
2017-Sep-15 02:06N 48°30' W 005°24'2 7.7
2017-Sep-15 01:49N 48°28' W 005°23'26 7.9
2017-Sep-14 22:34N 48°02' W 005°17'  
Track history (hours):
 
Tides and Currents Weather Stations Pressure Air Temp Water Temp Dewpoint Dewpoint Depression Visibility Wind Speed Wind Dir Waves Ship Positions

Eems Carrier

Last reported at 2017-Sep-22 01:59 UTC. Time now 2017-Sep-23 14:48 UTC.
Position N 54°06' E 007°54'.

Length 84 m; draft 2.7 m.

Type: Cargo ship. MMSI: 245257000.

Date/timePositionNaut miles runAvg speedWind from/ knotsBaromVisibWave heightAir tempDewpointWater temp
2017-Sep-22 01:59N 54°06' E 007°54'511.0
2017-Sep-22 01:29N 54°03' E 008°02'510.5
2017-Sep-22 01:00N 54°01' E 008°10'510.7
2017-Sep-22 00:30N 54°00' E 008°19'510.3
2017-Sep-22 00:00N 53°59' E 008°28'5 9.2
2017-Sep-21 23:31N 53°58' E 008°35'4 8.0
2017-Sep-21 23:01N 53°55' E 008°41'3 6.6
2017-Sep-21 22:29N 53°53' E 008°44'0 0.1
2017-Sep-21 21:59N 53°53' E 008°44'0 0.1
2017-Sep-21 21:23N 53°53' E 008°44'0 0.2
2017-Sep-21 20:59N 53°53' E 008°44'0 0.0
2017-Sep-21 20:29N 53°53' E 008°44'0 0.0
2017-Sep-21 19:59N 53°53' E 008°44'0 0.0
2017-Sep-21 19:29N 53°53' E 008°44'0 0.1
2017-Sep-21 19:00N 53°53' E 008°44'2 3.7
2017-Sep-21 18:30N 53°54' E 008°41'3 6.6
2017-Sep-21 18:00N 53°57' E 008°38'4 7.6
2017-Sep-21 17:30N 53°58' E 008°32'4 7.9
2017-Sep-21 17:00N 53°59' E 008°26'4 8.2
2017-Sep-21 16:30N 53°60' E 008°19'4 5.3
2017-Sep-21 15:46N 54°03' E 008°16'  
2017-Sep-18 04:58N 54°07' E 008°16'5 9.9
2017-Sep-18 04:28N 54°03' E 008°13'4 7.0
2017-Sep-18 03:55N 53°60' E 008°09'2 5.9
2017-Sep-18 03:30N 53°59' E 008°05'3 5.6
2017-Sep-18 02:54N 53°58' E 007°59'2 5.4
2017-Sep-18 02:30N 53°58' E 007°55'100 7.5
2017-Sep-17 13:03N 53°31' E 005°12'1 9.4
2017-Sep-17 12:58N 53°30' E 005°11'4 9.3
2017-Sep-17 12:30N 53°29' E 005°04'4 8.9
2017-Sep-17 12:00N 53°27' E 004°58'5 8.7
2017-Sep-17 11:26N 53°25' E 004°50'142 8.8
2017-Sep-16 19:11N 51°36' E 002°20'4 8.7
2017-Sep-16 18:45N 51°33' E 002°16'2 8.4
2017-Sep-16 18:30N 51°31' E 002°15'4 8.2
2017-Sep-16 18:00N 51°27' E 002°13'4 8.0
2017-Sep-16 17:30N 51°23' E 002°11'3 6.9
2017-Sep-16 17:00N 51°20' E 002°07'4 7.3
2017-Sep-16 16:30N 51°17' E 002°06'4 7.1
2017-Sep-16 16:00N 51°14' E 002°02'4 7.8
2017-Sep-16 15:30N 51°12' E 001°57'4 7.9
2017-Sep-16 15:00N 51°10' E 001°52'4 8.0
2017-Sep-16 14:30N 51°07' E 001°47'4 8.1
2017-Sep-16 14:00N 51°04' E 001°42'4 8.3
2017-Sep-16 13:30N 51°01' E 001°38'4 8.9
2017-Sep-16 13:00N 50°59' E 001°32'5 9.6
2017-Sep-16 12:28N 50°56' E 001°26'122 9.4
2017-Sep-15 23:28N 50°04' W 001°29'3 7.4
2017-Sep-15 23:00N 50°03' W 001°34'4 7.1
2017-Sep-15 22:30N 50°02' W 001°39'3 6.9
2017-Sep-15 22:00N 50°01' W 001°44'3 6.8
2017-Sep-15 21:30N 50°00' W 001°49'3 6.8
2017-Sep-15 21:00N 49°59' W 001°54'136 9.0
2017-Sep-15 05:50N 48°49' W 004°53'2 7.7
2017-Sep-15 05:30N 48°47' W 004°56'4 7.6
2017-Sep-15 05:00N 48°45' W 005°00'4 7.5
2017-Sep-15 04:30N 48°42' W 005°05'4 7.4
2017-Sep-15 04:00N 48°40' W 005°09'4 7.4
2017-Sep-15 03:30N 48°38' W 005°14'4 7.5
2017-Sep-15 03:00N 48°35' W 005°17'7 7.7
2017-Sep-15 02:06N 48°30' W 005°24'2 7.7
2017-Sep-15 01:49N 48°28' W 005°23'26 7.9
2017-Sep-14 22:34N 48°02' W 005°17'  

Dump ship's entire track history